Time;durP1;ratioP1;P1;durP2;ratioP2;P2;SDS_P1;SDS_P2;PMS_P1;PMS_P2;Temp;Humidity;BMP_temperature;BMP_pressure;BME280_temperature;BME280_humidity;BME280_pressure;Samples;Min_cycle;Max_cycle;Signal;HPM_P1;HPM_P2
2021/05/01 00:01:32;;;;;;;13.93;12.63;;;15.00;99.90;;;;;;6262620;28;20473;-68
2021/05/01 00:04:38;;;;;;;14.53;13.10;;;15.00;99.90;;;;;;6248411;28;20820;-75
2021/05/01 00:07:40;;;;;;;14.87;13.50;;;15.00;99.90;;;;;;6224138;28;20472;-65
2021/05/01 00:10:42;;;;;;;15.27;13.50;;;15.00;99.90;;;;;;6228421;28;20796;-65
2021/05/01 00:13:44;;;;;;;15.00;13.63;;;15.00;99.90;;;;;;6247223;28;20478;-62
2021/05/01 00:16:47;;;;;;;15.40;13.90;;;14.90;99.90;;;;;;6252338;28;20477;-64
2021/05/01 00:19:50;;;;;;;13.70;12.40;;;15.00;99.90;;;;;;6252819;28;20592;-63
2021/05/01 00:22:52;;;;;;;15.00;13.50;;;15.00;99.90;;;;;;6252076;28;20481;-64
2021/05/01 00:25:54;;;;;;;14.30;13.00;;;15.10;99.90;;;;;;6252696;28;20470;-64
2021/05/01 00:28:56;;;;;;;13.87;12.63;;;15.10;99.90;;;;;;6250947;28;20479;-64
2021/05/01 00:31:58;;;;;;;13.87;12.50;;;15.10;99.90;;;;;;6250332;28;20478;-64
2021/05/01 00:35:02;;;;;;;12.47;11.17;;;15.10;99.90;;;;;;6250171;28;20478;-65
2021/05/01 00:38:04;;;;;;;13.63;12.33;;;15.10;99.90;;;;;;6247530;28;20490;-65
2021/05/01 00:41:06;;;;;;;15.03;13.53;;;15.10;99.90;;;;;;6236777;28;20510;-65
2021/05/01 00:44:09;;;;;;;13.70;12.37;;;15.10;99.90;;;;;;6251726;28;20827;-65
2021/05/01 00:47:12;;;;;;;13.17;12.07;;;15.10;99.90;;;;;;6252552;28;20479;-63
2021/05/01 00:50:16;;;;;;;12.57;11.30;;;15.10;99.90;;;;;;6252453;28;20522;-65
2021/05/01 00:53:18;;;;;;;13.30;11.90;;;15.10;99.90;;;;;;6252666;28;20486;-65
2021/05/01 00:56:21;;;;;;;14.10;11.77;;;15.20;99.90;;;;;;6252408;28;20471;-66
2021/05/01 00:59:23;;;;;;;12.90;11.70;;;15.00;99.90;;;;;;6252600;28;20463;-65
2021/05/01 01:02:27;;;;;;;12.47;11.27;;;15.00;99.90;;;;;;6251891;28;20483;-65
2021/05/01 01:05:31;;;;;;;13.80;12.33;;;14.90;99.90;;;;;;6251925;28;20503;-64
2021/05/01 01:08:33;;;;;;;13.83;12.43;;;14.90;99.90;;;;;;6252174;28;20463;-65
2021/05/01 01:11:36;;;;;;;13.20;11.37;;;14.90;99.90;;;;;;6252130;28;20471;-66
2021/05/01 01:14:40;;;;;;;14.50;13.10;;;14.90;99.90;;;;;;6251390;28;20818;-65
2021/05/01 01:17:42;;;;;;;13.03;11.83;;;15.00;99.90;;;;;;6251682;28;20475;-64
2021/05/01 01:20:46;;;;;;;13.47;12.17;;;14.90;99.90;;;;;;6252037;28;20558;-65
2021/05/01 01:23:49;;;;;;;12.83;11.40;;;14.90;99.90;;;;;;6250217;28;20486;-64
2021/05/01 01:26:52;;;;;;;13.27;11.90;;;14.90;99.90;;;;;;6252009;28;20467;-65
2021/05/01 01:29:54;;;;;;;12.97;11.73;;;14.80;99.90;;;;;;6251459;28;20482;-65
2021/05/01 01:32:57;;;;;;;14.03;12.73;;;14.70;99.90;;;;;;6251502;28;20483;-65
2021/05/01 01:35:59;;;;;;;13.50;12.40;;;14.60;99.90;;;;;;6251388;28;20482;-65
2021/05/01 01:39:03;;;;;;;11.07;10.13;;;14.60;99.90;;;;;;6251599;28;20803;-63
2021/05/01 01:42:05;;;;;;;12.70;11.50;;;14.60;99.90;;;;;;6251327;28;20480;-63
2021/05/01 01:45:09;;;;;;;12.83;11.63;;;14.60;99.90;;;;;;6241903;28;20997;-65
2021/05/01 01:48:14;;;;;;;12.70;11.13;;;14.60;99.90;;;;;;6251000;28;20637;-64
2021/05/01 01:51:16;;;;;;;13.43;12.23;;;14.70;99.90;;;;;;6250956;28;20483;-66
2021/05/01 01:54:19;;;;;;;12.63;11.43;;;14.70;99.90;;;;;;6250720;28;20459;-65
2021/05/01 01:57:21;;;;;;;12.13;10.97;;;14.70;99.90;;;;;;6251278;28;20451;-64
2021/05/01 02:00:25;;;;;;;11.63;10.63;;;14.70;99.90;;;;;;6251310;28;20447;-66
2021/05/01 02:03:27;;;;;;;11.40;10.40;;;14.60;99.90;;;;;;6250683;28;20478;-66
2021/05/01 02:06:30;;;;;;;14.17;10.60;;;14.60;99.90;;;;;;6250774;28;20470;-65
2021/05/01 02:09:41;;;;;;;11.83;10.80;;;14.60;99.90;;;;;;6250715;28;20486;-64
2021/05/01 02:12:43;;;;;;;11.37;10.27;;;14.60;99.90;;;;;;6251889;28;20459;-66
2021/05/01 02:15:45;;;;;;;10.70;9.70;;;14.70;99.90;;;;;;6256097;28;20455;-64
2021/05/01 02:18:47;;;;;;;10.90;9.83;;;14.70;99.90;;;;;;6253860;28;20471;-66
2021/05/01 02:21:49;;;;;;;10.97;9.10;;;14.70;99.90;;;;;;6250566;28;20935;-64
2021/05/01 02:24:52;;;;;;;10.10;9.30;;;14.70;99.90;;;;;;6250875;28;20481;-66
2021/05/01 02:27:55;;;;;;;10.60;9.57;;;14.70;99.90;;;;;;6250518;28;20466;-65
2021/05/01 02:30:57;;;;;;;10.63;9.73;;;14.60;99.90;;;;;;6250209;28;20475;-65
2021/05/01 02:34:00;;;;;;;9.53;8.70;;;14.60;99.90;;;;;;6250349;28;20470;-67
2021/05/01 02:37:02;;;;;;;8.73;8.03;;;14.60;99.90;;;;;;6249867;28;20962;-65
2021/05/01 02:40:08;;;;;;;9.93;9.13;;;14.60;99.90;;;;;;6250612;28;20548;-66
2021/05/01 02:43:12;;;;;;;9.00;8.20;;;14.50;99.90;;;;;;6249711;28;20486;-66
2021/05/01 02:46:15;;;;;;;10.07;9.00;;;14.50;99.90;;;;;;6241334;28;20478;-67
2021/05/01 02:49:17;;;;;;;10.33;8.80;;;14.60;99.90;;;;;;6249677;28;20483;-65
2021/05/01 02:52:19;;;;;;;9.17;8.37;;;14.60;99.90;;;;;;6250263;28;20477;-66
2021/05/01 02:55:22;;;;;;;9.40;7.90;;;14.50;99.90;;;;;;6249895;28;20482;-67
2021/05/01 02:58:25;;;;;;;8.80;7.90;;;14.50;99.90;;;;;;6250118;28;20485;-64
2021/05/01 03:01:27;;;;;;;8.27;7.53;;;14.50;99.90;;;;;;6249722;28;20478;-67
2021/05/01 03:04:29;;;;;;;8.33;7.63;;;14.40;99.90;;;;;;6249197;28;20479;-66
2021/05/01 03:07:31;;;;;;;8.20;7.40;;;14.40;99.90;;;;;;6249351;28;20963;-66
2021/05/01 03:10:34;;;;;;;7.70;6.97;;;14.40;99.90;;;;;;6249494;28;20489;-65
2021/05/01 03:13:36;;;;;;;7.13;6.53;;;14.40;99.90;;;;;;6249395;28;20974;-66
2021/05/01 03:16:39;;;;;;;7.80;7.10;;;14.30;99.90;;;;;;6249256;28;20988;-65
2021/05/01 03:19:41;;;;;;;9.57;8.67;;;14.20;99.90;;;;;;6249437;28;20474;-66
2021/05/01 03:22:44;;;;;;;9.07;7.83;;;14.20;99.90;;;;;;6249027;28;20979;-64
2021/05/01 03:25:47;;;;;;;7.77;7.00;;;14.20;99.90;;;;;;6249397;28;20969;-67
2021/05/01 03:28:51;;;;;;;7.27;6.57;;;14.10;99.90;;;;;;6249260;28;20474;-65
2021/05/01 03:31:54;;;;;;;8.20;7.03;;;14.00;99.90;;;;;;6249099;28;20475;-67
2021/05/01 03:34:56;;;;;;;8.10;7.27;;;14.00;99.90;;;;;;6249297;28;20463;-66
2021/05/01 03:37:58;;;;;;;7.63;7.03;;;13.90;99.90;;;;;;6249018;28;20485;-64
2021/05/01 03:41:01;;;;;;;7.83;7.13;;;13.80;99.90;;;;;;6248839;28;20791;-64
2021/05/01 03:44:04;;;;;;;11.20;7.83;;;13.90;99.90;;;;;;6248902;28;20533;-65
2021/05/01 03:47:06;;;;;;;7.43;6.93;;;13.80;99.90;;;;;;6250583;28;20503;-65
2021/05/01 03:50:10;;;;;;;7.97;7.27;;;13.80;99.90;;;;;;6249163;28;20479;-65
2021/05/01 03:53:12;;;;;;;9.83;7.30;;;13.80;99.90;;;;;;6253879;28;20817;-65
2021/05/01 03:56:15;;;;;;;7.80;7.20;;;13.80;99.90;;;;;;6252986;28;20498;-65
2021/05/01 03:59:17;;;;;;;8.23;7.43;;;13.70;99.90;;;;;;6253717;28;20481;-66
2021/05/01 04:02:19;;;;;;;7.17;6.50;;;13.80;99.90;;;;;;6253289;28;20485;-65
2021/05/01 04:05:22;;;;;;;7.47;6.73;;;13.80;99.90;;;;;;6253410;28;20649;-68
2021/05/01 04:08:24;;;;;;;7.83;6.80;;;13.70;99.90;;;;;;6253505;28;20479;-65
2021/05/01 04:11:28;;;;;;;7.43;6.77;;;13.80;99.90;;;;;;6253463;28;20485;-64
2021/05/01 04:14:30;;;;;;;7.37;6.67;;;13.70;99.90;;;;;;6253195;28;20971;-65
2021/05/01 04:17:32;;;;;;;7.70;6.93;;;13.70;99.90;;;;;;6253208;28;20971;-64
2021/05/01 04:20:35;;;;;;;7.80;7.10;;;13.70;99.90;;;;;;6253275;28;20517;-65
2021/05/01 04:23:37;;;;;;;9.77;7.40;;;13.70;99.90;;;;;;6253114;28;20792;-65
2021/05/01 04:26:41;;;;;;;8.03;7.33;;;13.70;99.90;;;;;;6253112;28;20486;-67
2021/05/01 04:29:45;;;;;;;8.37;7.57;;;13.70;99.90;;;;;;6252703;28;20497;-66
2021/05/01 04:33:16;;;;;;;7.20;6.60;;;13.70;99.90;;;;;;6252251;28;20805;-66
2021/05/01 04:36:18;;;;;;;8.37;6.93;;;13.70;99.90;;;;;;6253123;28;20481;-67
2021/05/01 04:39:20;;;;;;;7.50;6.80;;;13.70;99.90;;;;;;6252860;28;20462;-66
2021/05/01 04:42:23;;;;;;;8.03;7.20;;;13.70;99.90;;;;;;6252571;28;20442;-66
2021/05/01 04:45:26;;;;;;;9.30;8.50;;;13.70;99.90;;;;;;6252648;28;20965;-66
2021/05/01 04:48:29;;;;;;;6.70;6.03;;;13.80;99.90;;;;;;6252636;28;20442;-66
2021/05/01 04:51:32;;;;;;;7.87;7.17;;;13.90;99.90;;;;;;6251970;28;20575;-68
2021/05/01 04:54:34;;;;;;;7.10;6.40;;;14.00;99.90;;;;;;6247491;28;20486;-67
2021/05/01 04:57:40;;;;;;;6.50;6.00;;;14.10;99.90;;;;;;6252331;28;20462;-66
2021/05/01 05:00:43;;;;;;;6.97;6.37;;;14.30;99.90;;;;;;6252429;28;20475;-67
2021/05/01 05:03:45;;;;;;;7.10;6.37;;;14.40;99.90;;;;;;6252233;28;20463;-67
2021/05/01 05:06:47;;;;;;;7.20;6.60;;;14.50;99.90;;;;;;6252378;28;20470;-67
2021/05/01 05:09:49;;;;;;;5.87;5.37;;;14.70;99.90;;;;;;6251927;28;20473;-67
2021/05/01 05:12:52;;;;;;;6.33;5.73;;;15.00;99.90;;;;;;6252263;28;20471;-66
2021/05/01 05:15:55;;;;;;;6.40;5.80;;;15.30;99.90;;;;;;6252200;28;20467;-66
2021/05/01 05:18:57;;;;;;;5.50;5.00;;;15.50;99.90;;;;;;6251955;28;20971;-66
2021/05/01 05:21:59;;;;;;;5.63;5.13;;;15.70;99.90;;;;;;6251697;28;20966;-66
2021/05/01 05:25:01;;;;;;;5.87;5.37;;;15.90;99.90;;;;;;6252162;28;20471;-66
2021/05/01 05:28:04;;;;;;;8.43;6.37;;;16.00;99.90;;;;;;6251735;28;20471;-66
2021/05/01 05:31:07;;;;;;;5.60;5.10;;;16.10;99.90;;;;;;6251828;28;20478;-66
2021/05/01 05:34:09;;;;;;;5.73;5.10;;;16.40;99.90;;;;;;6251584;28;20996;-67
2021/05/01 05:37:11;;;;;;;6.63;4.70;;;16.70;99.90;;;;;;6251710;28;20554;-66
2021/05/01 05:40:15;;;;;;;5.40;3.93;;;17.20;99.90;;;;;;6252059;28;20471;-66
2021/05/01 05:43:18;;;;;;;4.83;4.30;;;17.70;98.70;;;;;;6251502;28;20490;-66
2021/05/01 05:46:20;;;;;;;5.33;4.83;;;18.10;97.70;;;;;;6251188;28;20490;-66
2021/05/01 05:49:23;;;;;;;4.87;4.40;;;18.60;96.50;;;;;;6251192;28;20467;-66
2021/05/01 05:52:25;;;;;;;4.67;4.27;;;19.00;95.80;;;;;;6251435;28;20483;-66
2021/05/01 05:55:27;;;;;;;9.53;5.10;;;19.50;94.50;;;;;;6250864;28;20789;-66
2021/05/01 05:58:31;;;;;;;4.40;4.10;;;20.10;93.40;;;;;;6242258;28;20462;-67
2021/05/01 06:01:37;;;;;;;3.90;3.60;;;20.50;92.40;;;;;;6250715;28;20247;-66
2021/05/01 06:04:44;;;;;;;4.50;4.20;;;21.10;91.00;;;;;;6250110;28;20702;-66
2021/05/01 06:07:51;;;;;;;4.23;3.83;;;21.70;87.00;;;;;;6249465;28;20690;-67
2021/05/01 06:10:53;;;;;;;4.13;3.73;;;21.90;84.90;;;;;;6248892;28;20239;-66
2021/05/01 06:14:02;;;;;;;4.33;3.90;;;22.00;83.60;;;;;;6249468;28;20543;-66
2021/05/01 06:17:05;;;;;;;4.10;3.80;;;22.50;80.80;;;;;;6249825;28;20224;-66
2021/05/01 06:20:09;;;;;;;4.20;3.80;;;22.90;78.60;;;;;;6249481;28;20680;-66
2021/05/01 06:23:11;;;;;;;6.60;3.90;;;23.50;75.30;;;;;;6249404;28;20247;-67
2021/05/01 06:26:14;;;;;;;3.47;3.17;;;24.30;72.20;;;;;;6249423;28;20239;-66
2021/05/01 06:29:18;;;;;;;3.90;3.10;;;24.90;69.20;;;;;;6249105;28;20247;-67
2021/05/01 06:32:21;;;;;;;4.80;3.70;;;25.40;67.20;;;;;;6248794;28;20791;-67
2021/05/01 06:35:24;;;;;;;4.67;4.10;;;25.80;63.30;;;;;;6248961;28;20231;-67
2021/05/01 06:38:28;;;;;;;4.30;4.00;;;26.60;59.40;;;;;;6249443;28;20235;-68
2021/05/01 06:41:39;;;;;;;3.80;3.17;;;27.10;57.60;;;;;;6247583;28;20667;-68
2021/05/01 06:44:49;;;;;;;3.77;3.07;;;27.70;55.30;;;;;;6248008;28;20252;-68
2021/05/01 06:47:54;;;;;;;3.50;3.30;;;28.10;53.20;;;;;;6247982;28;20282;-68
2021/05/01 06:51:00;;;;;;;4.07;3.77;;;28.10;52.90;;;;;;6246732;28;20496;-68
2021/05/01 06:54:03;;;;;;;4.67;4.27;;;28.40;51.80;;;;;;6247688;28;20223;-68
2021/05/01 06:57:06;;;;;;;3.83;3.40;;;29.00;50.30;;;;;;6248193;28;20227;-68
2021/05/01 07:00:11;;;;;;;3.77;3.47;;;29.80;48.80;;;;;;6248363;28;20226;-70
2021/05/01 07:03:14;;;;;;;4.93;2.97;;;30.40;46.90;;;;;;6243554;28;20684;-69
2021/05/01 07:06:19;;;;;;;3.60;3.30;;;31.00;44.90;;;;;;6226145;28;646116;-70
2021/05/01 07:09:21;;;;;;;3.70;2.67;;;31.60;43.90;;;;;;6248457;28;20234;-68
2021/05/01 07:12:26;;;;;;;3.87;3.23;;;32.20;42.70;;;;;;6249042;28;20192;-69
2021/05/01 07:15:29;;;;;;;3.33;3.10;;;32.60;41.20;;;;;;6249372;28;20661;-65
2021/05/01 07:18:32;;;;;;;3.40;3.10;;;32.70;39.40;;;;;;6247896;28;20628;-65
2021/05/01 07:21:34;;;;;;;2.55;2.35;;;33.00;38.90;;;;;;6247749;28;20195;-66
2021/05/01 07:24:37;;;;;;;2.40;2.20;;;33.70;37.90;;;;;;6246381;28;20231;-66
2021/05/01 07:27:47;;;;;;;2.88;2.30;;;34.20;36.10;;;;;;6249456;28;20257;-69
2021/05/01 07:30:53;;;;;;;2.28;2.08;;;35.10;34.10;;;;;;6249468;28;20242;-69
2021/05/01 07:33:57;;;;;;;3.17;2.88;;;36.30;32.50;;;;;;6249253;28;20273;-68
2021/05/01 07:37:04;;;;;;;2.58;2.38;;;36.30;32.80;;;;;;6249100;28;20547;-69
2021/05/01 07:40:10;;;;;;;4.68;2.42;;;36.30;30.60;;;;;;6249206;28;20887;-68
2021/05/01 07:43:16;;;;;;;2.20;2.00;;;36.50;30.50;;;;;;6249743;28;20243;-68
2021/05/01 07:46:21;;;;;;;2.53;2.03;;;35.80;30.80;;;;;;6249192;28;20243;-70
2021/05/01 07:49:24;;;;;;;3.22;2.10;;;35.00;31.50;;;;;;6249165;28;20621;-69
2021/05/01 07:52:30;;;;;;;3.75;2.50;;;36.40;30.60;;;;;;6248611;28;20246;-69
2021/05/01 07:55:33;;;;;;;2.25;2.05;;;36.50;29.70;;;;;;6250063;28;20232;-65
2021/05/01 07:58:35;;;;;;;3.88;2.65;;;36.60;30.00;;;;;;6248343;28;20233;-65
2021/05/01 08:01:38;;;;;;;3.22;2.63;;;37.70;29.40;;;;;;6248857;28;20562;-65
2021/05/01 08:04:42;;;;;;;2.63;2.42;;;38.40;28.30;;;;;;6248809;28;20240;-67
2021/05/01 08:07:44;;;;;;;2.70;2.20;;;37.50;28.70;;;;;;6239826;28;20243;-67
2021/05/01 08:10:46;;;;;;;3.10;2.13;;;37.70;29.40;;;;;;6248773;28;20672;-68
2021/05/01 08:13:48;;;;;;;3.85;2.15;;;39.10;28.10;;;;;;6248443;28;20232;-67
2021/05/01 08:16:51;;;;;;;2.55;1.95;;;40.40;27.10;;;;;;6249140;28;20243;-67
2021/05/01 08:19:54;;;;;;;2.33;2.13;;;39.40;27.10;;;;;;6248802;28;20235;-69
2021/05/01 08:22:56;;;;;;;2.38;2.17;;;38.60;27.90;;;;;;6248715;28;20239;-67
2021/05/01 08:25:59;;;;;;;1.85;1.73;;;39.30;27.40;;;;;;6248271;28;20232;-68
2021/05/01 08:29:01;;;;;;;2.10;2.00;;;39.90;26.20;;;;;;6248424;28;20235;-68
2021/05/01 08:32:04;;;;;;;2.30;2.10;;;40.00;26.10;;;;;;6247725;28;20255;-67
2021/05/01 08:35:07;;;;;;;2.35;1.80;;;38.60;26.10;;;;;;6252775;28;20686;-68
2021/05/01 08:38:10;;;;;;;2.35;2.15;;;38.60;26.60;;;;;;6253287;28;20227;-68
2021/05/01 08:41:12;;;;;;;4.68;2.10;;;39.20;26.10;;;;;;6252822;28;20227;-68
2021/05/01 08:44:17;;;;;;;3.40;2.30;;;38.30;26.60;;;;;;6252744;28;20236;-66
2021/05/01 08:47:21;;;;;;;2.13;1.90;;;38.20;26.80;;;;;;6251956;28;20691;-66
2021/05/01 08:50:40;;;;;;;2.33;1.80;;;36.80;27.60;;;;;;6252473;28;20231;-66
2021/05/01 08:53:43;;;;;;;3.30;2.00;;;34.30;29.30;;;;;;6252636;28;20235;-67
2021/05/01 08:56:46;;;;;;;2.20;1.77;;;33.20;30.70;;;;;;6251870;28;20242;-67
2021/05/01 08:59:48;;;;;;;2.10;1.90;;;32.90;31.30;;;;;;6252164;28;20242;-68
2021/05/01 09:02:51;;;;;;;2.25;2.00;;;32.70;31.40;;;;;;6247857;28;20224;-70
2021/05/01 09:05:56;;;;;;;2.95;1.77;;;32.50;31.70;;;;;;6236106;28;20561;-65
2021/05/01 09:09:01;;;;;;;2.80;1.80;;;32.40;32.30;;;;;;6247892;28;20224;-64
2021/05/01 09:12:04;;;;;;;2.47;1.70;;;31.90;33.00;;;;;;6231912;28;20239;-65
2021/05/01 09:15:09;;;;;;;2.40;2.00;;;30.40;34.40;;;;;;6226896;28;20247;-66
2021/05/01 09:18:12;;;;;;;1.77;1.60;;;29.40;36.10;;;;;;6227213;28;20265;-70
2021/05/01 09:21:18;;;;;;;3.20;2.20;;;29.00;36.60;;;;;;6242963;28;20592;-64
2021/05/01 09:24:22;;;;;;;3.37;2.03;;;29.20;37.00;;;;;;6251256;28;20228;-66
2021/05/01 09:27:24;;;;;;;2.43;2.13;;;28.60;37.90;;;;;;6251742;28;20234;-66
2021/05/01 09:30:28;;;;;;;2.23;1.83;;;27.70;39.10;;;;;;6251263;28;20227;-71
2021/05/01 09:33:33;;;;;;;2.50;2.00;;;27.00;40.80;;;;;;6251132;28;20239;-69
2021/05/01 09:36:36;;;;;;;4.43;2.07;;;26.90;41.00;;;;;;6251123;28;20262;-68
2021/05/01 09:39:47;;;;;;;1.90;1.70;;;26.90;41.20;;;;;;6251666;28;20258;-66
2021/05/01 09:42:49;;;;;;;2.93;2.07;;;26.90;41.70;;;;;;6251067;28;20228;-67
2021/05/01 09:45:52;;;;;;;3.43;2.10;;;27.00;42.10;;;;;;6250454;28;20227;-68
2021/05/01 09:49:07;;;;;;;2.83;2.03;;;26.90;42.40;;;;;;6251081;28;20235;-65
2021/05/01 09:52:10;;;;;;;3.30;1.90;;;27.40;42.20;;;;;;6251147;28;20231;-68
2021/05/01 09:55:12;;;;;;;3.43;2.20;;;27.40;40.90;;;;;;6250592;28;20263;-67
2021/05/01 09:58:17;;;;;;;2.57;2.00;;;27.00;42.30;;;;;;6250851;28;20617;-63
2021/05/01 10:01:19;;;;;;;2.40;2.07;;;26.70;42.50;;;;;;6251002;28;20238;-63
2021/05/01 10:04:23;;;;;;;3.93;2.00;;;27.00;43.40;;;;;;6248894;28;20235;-65
2021/05/01 10:07:37;;;;;;;3.43;2.07;;;27.40;42.60;;;;;;6250773;28;20227;-65
2021/05/01 10:10:41;;;;;;;3.13;2.20;;;27.80;43.10;;;;;;6250551;28;20623;-66
2021/05/01 10:13:50;;;;;;;2.20;2.00;;;28.20;41.10;;;;;;6239957;28;20545;-64
2021/05/01 10:16:55;;;;;;;3.60;2.13;;;27.50;41.30;;;;;;6250482;28;20228;-68
2021/05/01 10:20:00;;;;;;;6.63;2.40;;;27.40;41.30;;;;;;6250038;28;20306;-67
2021/05/01 10:23:02;;;;;;;4.17;2.30;;;27.50;41.60;;;;;;6250329;28;20247;-67
2021/05/01 10:26:13;;;;;;;2.93;2.20;;;27.40;41.70;;;;;;6250038;28;20224;-66
2021/05/01 10:29:29;;;;;;;2.53;2.33;;;26.70;43.10;;;;;;6250288;28;20289;-66
2021/05/01 10:32:41;;;;;;;4.00;2.70;;;26.20;44.10;;;;;;6249694;28;20232;-66
2021/05/01 10:35:57;;;;;;;2.80;2.00;;;26.40;44.20;;;;;;6250331;28;20232;-66
2021/05/01 10:39:02;;;;;;;4.07;2.30;;;26.60;44.30;;;;;;6249819;28;20220;-65
2021/05/01 10:42:13;;;;;;;3.40;2.20;;;27.00;43.40;;;;;;6249996;28;20232;-62
2021/05/01 10:45:26;;;;;;;2.97;2.40;;;27.50;42.30;;;;;;6249574;28;20243;-67
2021/05/01 10:48:28;;;;;;;2.30;2.10;;;27.50;42.50;;;;;;6250112;28;20616;-68
2021/05/01 10:51:37;;;;;;;3.00;2.10;;;27.80;41.30;;;;;;6249853;28;20242;-69
2021/05/01 10:54:56;;;;;;;2.60;2.17;;;28.00;40.60;;;;;;6249663;28;20243;-70
2021/05/01 10:57:59;;;;;;;4.83;2.27;;;28.10;40.20;;;;;;6249549;28;20235;-68
2021/05/01 11:01:02;;;;;;;3.73;2.53;;;27.70;40.80;;;;;;6249634;28;20251;-69
2021/05/01 11:04:06;;;;;;;3.67;2.60;;;27.60;41.20;;;;;;6248796;28;20608;-71
2021/05/01 11:07:19;;;;;;;4.37;2.73;;;27.70;41.50;;;;;;6249338;28;20228;-71
2021/05/01 11:10:23;;;;;;;5.30;2.70;;;28.00;41.70;;;;;;6248198;28;20219;-68
2021/05/01 11:13:27;;;;;;;4.50;2.20;;;28.00;41.70;;;;;;6249352;28;20255;-68
2021/05/01 11:16:42;;;;;;;3.57;2.60;;;27.40;42.10;;;;;;6244959;28;20676;-64
2021/05/01 11:19:45;;;;;;;2.83;1.97;;;26.40;43.70;;;;;;6246840;28;20242;-64
2021/05/01 11:22:52;;;;;;;3.70;2.17;;;26.60;44.50;;;;;;6248666;28;20254;-64
2021/05/01 11:25:58;;;;;;;3.77;2.30;;;26.70;42.80;;;;;;6249519;28;20338;-64
2021/05/01 11:29:01;;;;;;;4.07;2.47;;;26.30;43.80;;;;;;6248466;28;20707;-65
2021/05/01 11:32:05;;;;;;;2.63;2.27;;;26.30;44.70;;;;;;6248831;28;20569;-65
2021/05/01 11:35:12;;;;;;;4.40;2.60;;;26.50;44.60;;;;;;6248535;28;20239;-65
2021/05/01 11:38:23;;;;;;;4.17;2.27;;;26.80;44.70;;;;;;6249182;28;20235;-64
2021/05/01 11:41:26;;;;;;;3.10;2.40;;;27.50;43.50;;;;;;6248688;28;20696;-64
2021/05/01 11:44:29;;;;;;;4.03;2.17;;;27.40;42.80;;;;;;6249232;28;20232;-63
2021/05/01 11:47:31;;;;;;;4.63;2.23;;;27.30;42.60;;;;;;6248789;28;20425;-64
2021/05/01 11:50:36;;;;;;;3.07;2.67;;;27.30;42.70;;;;;;6248774;28;20281;-65
2021/05/01 11:53:46;;;;;;;4.00;2.53;;;27.40;42.50;;;;;;6248532;28;20693;-65
2021/05/01 11:56:56;;;;;;;4.33;2.43;;;27.60;43.30;;;;;;6248635;28;20231;-64
2021/05/01 12:00:00;;;;;;;3.97;3.13;;;27.80;42.00;;;;;;6248692;28;20239;-64
2021/05/01 12:03:06;;;;;;;5.80;2.60;;;27.50;43.30;;;;;;6248509;28;20687;-65
2021/05/01 12:06:17;;;;;;;4.63;2.20;;;27.30;43.60;;;;;;6247028;28;20242;-76
2021/05/01 12:09:24;;;;;;;3.43;2.40;;;27.40;43.80;;;;;;6250148;28;20583;-72
2021/05/01 12:12:30;;;;;;;3.80;2.63;;;27.70;43.40;;;;;;6250745;28;20247;-72
2021/05/01 12:15:33;;;;;;;4.73;2.23;;;28.00;42.70;;;;;;6251514;28;20199;-67
2021/05/01 12:18:43;;;;;;;2.97;2.70;;;27.90;42.70;;;;;;6251345;28;20219;-66
2021/05/01 12:21:46;;;;;;;5.23;2.63;;;27.30;44.10;;;;;;6238702;28;20739;-65
2021/05/01 12:24:49;;;;;;;7.43;2.20;;;27.40;44.30;;;;;;6253251;28;20242;-65
2021/05/01 12:27:53;;;;;;;5.90;2.47;;;27.40;43.10;;;;;;6251435;28;20558;-66
2021/05/01 12:30:55;;;;;;;5.13;2.00;;;27.50;43.10;;;;;;6251637;28;20282;-66
2021/05/01 12:33:58;;;;;;;4.47;2.60;;;27.20;41.70;;;;;;6251717;28;20239;-65
2021/05/01 12:37:01;;;;;;;2.80;1.93;;;27.10;41.20;;;;;;6252342;28;20675;-68
2021/05/01 12:40:09;;;;;;;2.70;2.13;;;27.30;40.70;;;;;;6228217;28;20228;-67
2021/05/01 12:43:36;;;;;;;3.13;1.77;;;27.60;40.10;;;;;;6226127;28;20549;-66
2021/05/01 12:46:45;;;;;;;5.77;2.03;;;27.30;39.70;;;;;;6225814;28;20684;-66
2021/05/01 12:49:48;;;;;;;5.50;1.90;;;27.60;40.00;;;;;;6226074;28;20228;-66
2021/05/01 12:52:51;;;;;;;2.37;1.70;;;27.20;40.10;;;;;;6225213;28;20242;-66
2021/05/01 12:56:22;;;;;;;2.90;1.97;;;27.10;39.60;;;;;;6226314;28;20311;-65
2021/05/01 12:59:30;;;;;;;3.57;2.07;;;26.70;40.90;;;;;;6228085;28;20224;-66
2021/05/01 13:02:32;;;;;;;6.47;2.40;;;26.70;40.70;;;;;;6227711;28;20228;-66
2021/05/01 13:05:35;;;;;;;4.77;3.00;;;26.90;42.20;;;;;;6247059;28;20232;-66
2021/05/01 13:08:38;;;;;;;6.03;2.57;;;27.00;45.30;;;;;;6250897;28;20246;-66
2021/05/01 13:11:43;;;;;;;2.33;1.53;;;27.10;43.70;;;;;;6251818;28;20224;-67
2021/05/01 13:15:02;;;;;;;3.90;2.10;;;27.50;38.40;;;;;;6252060;28;20235;-66
2021/05/01 13:18:08;;;;;;;4.73;1.50;;;27.60;41.90;;;;;;6251827;28;20254;-66
2021/05/01 13:21:11;;;;;;;2.70;1.60;;;27.30;37.70;;;;;;6251928;28;20231;-66
2021/05/01 13:24:16;;;;;;;3.30;1.23;;;27.30;37.50;;;;;;6246927;28;20252;-66
2021/05/01 13:27:19;;;;;;;2.40;2.17;;;27.30;37.10;;;;;;6251900;28;20235;-66
2021/05/01 13:30:24;;;;;;;4.03;2.80;;;27.40;41.30;;;;;;6251379;28;20231;-66
2021/05/01 13:33:26;;;;;;;4.23;2.60;;;27.20;43.90;;;;;;6251506;28;20230;-66
2021/05/01 13:36:29;;;;;;;3.40;2.40;;;27.00;44.50;;;;;;6251527;28;20203;-66
2021/05/01 13:39:34;;;;;;;1.93;1.50;;;27.00;39.90;;;;;;6251564;28;20208;-66
2021/05/01 13:42:40;;;;;;;3.50;3.20;;;27.10;40.10;;;;;;6250861;28;20199;-65
2021/05/01 13:45:46;;;;;;;5.30;2.80;;;26.50;46.20;;;;;;6251068;28;20204;-66
2021/05/01 13:48:49;;;;;;;3.60;3.00;;;26.40;47.30;;;;;;6250913;28;20227;-65
2021/05/01 13:51:53;;;;;;;4.83;3.07;;;26.30;48.20;;;;;;6251237;28;20240;-66
2021/05/01 13:55:13;;;;;;;5.33;2.87;;;26.10;48.70;;;;;;6251175;28;20290;-65
2021/05/01 13:58:18;;;;;;;4.40;2.97;;;26.10;49.00;;;;;;6251236;28;20228;-66
2021/05/01 14:01:21;;;;;;;4.80;3.20;;;26.20;49.50;;;;;;6251179;28;20285;-66
2021/05/01 14:04:30;;;;;;;2.60;1.80;;;26.20;49.10;;;;;;6250267;28;20652;-65
2021/05/01 14:07:34;;;;;;;3.73;1.77;;;25.70;39.90;;;;;;6250865;28;20239;-65
2021/05/01 14:10:38;;;;;;;1.63;1.53;;;25.70;39.90;;;;;;6250653;28;20247;-66
2021/05/01 14:13:41;;;;;;;2.10;1.70;;;25.70;39.20;;;;;;6250592;28;20240;-66
2021/05/01 14:16:56;;;;;;;1.77;1.30;;;25.70;39.30;;;;;;6250249;28;20239;-66
2021/05/01 14:20:00;;;;;;;4.33;1.20;;;25.70;38.90;;;;;;6250521;28;20228;-65
2021/05/01 14:23:04;;;;;;;4.27;1.40;;;25.70;38.50;;;;;;6250136;28;20255;-66
2021/05/01 14:26:12;;;;;;;2.47;1.40;;;25.80;38.30;;;;;;6250428;28;20238;-68
2021/05/01 14:29:16;;;;;;;2.77;1.97;;;25.90;38.70;;;;;;6240672;28;20246;-68
2021/05/01 14:32:18;;;;;;;3.90;1.60;;;25.80;38.80;;;;;;6249531;28;20242;-69
2021/05/01 14:35:20;;;;;;;3.13;2.10;;;25.70;38.40;;;;;;6266582;28;20242;-67
2021/05/01 14:38:24;;;;;;;5.30;2.40;;;25.70;38.80;;;;;;6263542;28;20223;-66
2021/05/01 14:41:27;;;;;;;2.67;1.30;;;25.50;38.40;;;;;;6249945;28;20231;-65
2021/05/01 14:44:30;;;;;;;4.87;2.00;;;25.50;39.50;;;;;;6249447;28;20551;-65
2021/05/01 14:47:35;;;;;;;4.80;2.13;;;25.70;39.20;;;;;;6249307;28;20232;-65
2021/05/01 14:50:38;;;;;;;2.63;1.83;;;25.70;39.90;;;;;;6249539;28;20231;-65
2021/05/01 14:53:40;;;;;;;2.43;1.60;;;25.60;40.10;;;;;;6249385;28;20232;-65
2021/05/01 14:57:00;;;;;;;1.93;1.60;;;25.50;40.00;;;;;;6247659;28;20232;-67
2021/05/01 15:00:07;;;;;;;3.73;2.13;;;25.40;40.10;;;;;;6247356;28;20224;-65
2021/05/01 15:03:10;;;;;;;3.60;1.47;;;25.40;39.70;;;;;;6247336;28;20232;-65
2021/05/01 15:06:12;;;;;;;2.90;1.63;;;25.60;40.10;;;;;;6244254;28;20239;-66
2021/05/01 15:09:27;;;;;;;2.20;1.73;;;25.60;40.20;;;;;;6247629;28;20224;-66
2021/05/01 15:12:30;;;;;;;2.40;1.37;;;25.50;40.20;;;;;;6248438;28;20217;-66
2021/05/01 15:15:37;;;;;;;5.80;2.13;;;25.30;40.10;;;;;;6249790;28;20216;-64
2021/05/01 15:18:39;;;;;;;3.60;1.90;;;25.30;40.70;;;;;;6249367;28;20213;-67
2021/05/01 15:21:42;;;;;;;2.70;1.67;;;25.20;40.30;;;;;;6248123;28;20196;-66
2021/05/01 15:24:57;;;;;;;2.57;1.90;;;25.20;40.40;;;;;;6249552;28;20246;-65
2021/05/01 15:28:00;;;;;;;2.87;1.73;;;25.20;41.10;;;;;;6249236;28;20680;-67
2021/05/01 15:31:03;;;;;;;2.27;1.77;;;25.10;40.60;;;;;;6240423;28;20228;-67
2021/05/01 15:34:10;;;;;;;2.13;1.37;;;25.20;40.40;;;;;;6242036;28;20699;-68
2021/05/01 15:37:12;;;;;;;4.60;1.60;;;25.20;40.30;;;;;;6225971;28;20579;-65
2021/05/01 15:40:15;;;;;;;2.20;2.00;;;25.20;40.30;;;;;;6248465;28;20238;-68
2021/05/01 15:43:17;;;;;;;2.67;1.50;;;25.30;40.20;;;;;;6250846;28;20232;-67
2021/05/01 15:46:21;;;;;;;2.30;2.00;;;25.20;40.20;;;;;;6253612;28;20234;-66
2021/05/01 15:49:23;;;;;;;2.17;1.70;;;25.20;40.40;;;;;;6252402;28;20224;-66
2021/05/01 15:52:28;;;;;;;4.17;2.00;;;25.30;40.60;;;;;;6253653;28;20243;-67
2021/05/01 15:55:31;;;;;;;2.53;1.60;;;25.30;40.00;;;;;;6253222;28;20565;-68